sensor_id;sensor_type;location;lat;lon;timestamp;P1;durP1;ratioP1;P2;durP2;ratioP2
22298;SDS011;11317;51.072;17.036;2023-04-15T00:01:47;15.25;;;9.65;;
22298;SDS011;11317;51.072;17.036;2023-04-15T00:04:13;16.27;;;9.00;;
22298;SDS011;11317;51.072;17.036;2023-04-15T00:06:39;14.68;;;8.68;;
22298;SDS011;11317;51.072;17.036;2023-04-15T00:09:05;16.80;;;9.07;;
22298;SDS011;11317;51.072;17.036;2023-04-15T00:11:32;13.35;;;7.80;;
22298;SDS011;11317;51.072;17.036;2023-04-15T00:13:58;12.30;;;7.88;;
22298;SDS011;11317;51.072;17.036;2023-04-15T00:16:24;10.70;;;7.20;;
22298;SDS011;11317;51.072;17.036;2023-04-15T00:18:51;12.95;;;7.72;;
22298;SDS011;11317;51.072;17.036;2023-04-15T00:21:17;10.27;;;6.60;;
22298;SDS011;11317;51.072;17.036;2023-04-15T00:23:43;13.00;;;7.97;;
22298;SDS011;11317;51.072;17.036;2023-04-15T00:26:09;12.73;;;7.50;;
22298;SDS011;11317;51.072;17.036;2023-04-15T00:28:35;12.45;;;7.20;;
22298;SDS011;11317;51.072;17.036;2023-04-15T00:31:02;14.55;;;7.72;;
22298;SDS011;11317;51.072;17.036;2023-04-15T00:33:28;9.98;;;6.97;;
22298;SDS011;11317;51.072;17.036;2023-04-15T00:35:54;12.23;;;7.50;;
22298;SDS011;11317;51.072;17.036;2023-04-15T00:38:21;11.95;;;7.13;;
22298;SDS011;11317;51.072;17.036;2023-04-15T00:40:47;12.13;;;6.85;;
22298;SDS011;11317;51.072;17.036;2023-04-15T00:43:13;13.30;;;7.50;;
22298;SDS011;11317;51.072;17.036;2023-04-15T00:45:40;11.50;;;7.68;;
22298;SDS011;11317;51.072;17.036;2023-04-15T00:48:07;11.13;;;7.03;;
22298;SDS011;11317;51.072;17.036;2023-04-15T00:50:33;12.38;;;7.32;;
22298;SDS011;11317;51.072;17.036;2023-04-15T00:52:59;12.07;;;7.43;;
22298;SDS011;11317;51.072;17.036;2023-04-15T00:55:26;11.68;;;8.05;;
22298;SDS011;11317;51.072;17.036;2023-04-15T00:57:52;11.48;;;6.72;;
22298;SDS011;11317;51.072;17.036;2023-04-15T01:00:18;13.30;;;7.63;;
22298;SDS011;11317;51.072;17.036;2023-04-15T01:02:44;11.50;;;7.05;;
22298;SDS011;11317;51.072;17.036;2023-04-15T01:05:11;10.75;;;6.50;;
22298;SDS011;11317;51.072;17.036;2023-04-15T01:07:37;11.23;;;6.75;;
22298;SDS011;11317;51.072;17.036;2023-04-15T01:10:03;13.48;;;7.00;;
22298;SDS011;11317;51.072;17.036;2023-04-15T01:12:29;17.60;;;7.30;;
22298;SDS011;11317;51.072;17.036;2023-04-15T01:14:57;12.10;;;7.10;;
22298;SDS011;11317;51.072;17.036;2023-04-15T01:17:24;13.40;;;7.25;;
22298;SDS011;11317;51.072;17.036;2023-04-15T01:19:50;11.93;;;7.55;;
22298;SDS011;11317;51.072;17.036;2023-04-15T01:22:17;11.63;;;7.07;;
22298;SDS011;11317;51.072;17.036;2023-04-15T01:24:46;11.10;;;7.28;;
22298;SDS011;11317;51.072;17.036;2023-04-15T01:27:20;9.30;;;6.30;;
22298;SDS011;11317;51.072;17.036;2023-04-15T01:29:46;10.80;;;6.68;;
22298;SDS011;11317;51.072;17.036;2023-04-15T01:32:12;12.75;;;7.22;;
22298;SDS011;11317;51.072;17.036;2023-04-15T01:34:38;10.90;;;7.25;;
22298;SDS011;11317;51.072;17.036;2023-04-15T01:37:04;12.13;;;7.05;;
22298;SDS011;11317;51.072;17.036;2023-04-15T01:39:31;12.80;;;6.82;;
22298;SDS011;11317;51.072;17.036;2023-04-15T01:41:57;13.18;;;7.20;;
22298;SDS011;11317;51.072;17.036;2023-04-15T01:44:23;10.65;;;6.85;;
22298;SDS011;11317;51.072;17.036;2023-04-15T01:46:49;11.68;;;6.93;;
22298;SDS011;11317;51.072;17.036;2023-04-15T01:49:16;13.88;;;7.00;;
22298;SDS011;11317;51.072;17.036;2023-04-15T01:51:42;10.73;;;6.95;;
22298;SDS011;11317;51.072;17.036;2023-04-15T01:54:08;13.20;;;7.88;;
22298;SDS011;11317;51.072;17.036;2023-04-15T01:56:35;9.93;;;6.40;;
22298;SDS011;11317;51.072;17.036;2023-04-15T01:59:01;13.30;;;7.38;;
22298;SDS011;11317;51.072;17.036;2023-04-15T02:01:27;9.43;;;6.40;;
22298;SDS011;11317;51.072;17.036;2023-04-15T02:03:54;12.65;;;7.72;;
22298;SDS011;11317;51.072;17.036;2023-04-15T02:06:20;10.63;;;7.07;;
22298;SDS011;11317;51.072;17.036;2023-04-15T02:08:46;11.23;;;6.72;;
22298;SDS011;11317;51.072;17.036;2023-04-15T02:11:13;10.98;;;7.03;;
22298;SDS011;11317;51.072;17.036;2023-04-15T02:13:39;14.50;;;8.15;;
22298;SDS011;11317;51.072;17.036;2023-04-15T02:16:14;11.13;;;7.18;;
22298;SDS011;11317;51.072;17.036;2023-04-15T02:18:41;11.43;;;7.60;;
22298;SDS011;11317;51.072;17.036;2023-04-15T02:21:07;11.65;;;7.30;;
22298;SDS011;11317;51.072;17.036;2023-04-15T02:23:33;12.48;;;7.13;;
22298;SDS011;11317;51.072;17.036;2023-04-15T02:25:59;12.68;;;7.38;;
22298;SDS011;11317;51.072;17.036;2023-04-15T02:28:26;11.95;;;7.78;;
22298;SDS011;11317;51.072;17.036;2023-04-15T02:30:52;11.77;;;7.35;;
22298;SDS011;11317;51.072;17.036;2023-04-15T02:33:21;12.35;;;7.13;;
22298;SDS011;11317;51.072;17.036;2023-04-15T02:35:47;11.93;;;7.53;;
22298;SDS011;11317;51.072;17.036;2023-04-15T02:38:13;12.45;;;7.93;;
22298;SDS011;11317;51.072;17.036;2023-04-15T02:40:41;10.45;;;8.07;;
22298;SDS011;11317;51.072;17.036;2023-04-15T02:43:08;13.00;;;7.85;;
22298;SDS011;11317;51.072;17.036;2023-04-15T02:45:34;12.55;;;8.02;;
22298;SDS011;11317;51.072;17.036;2023-04-15T02:48:00;14.38;;;8.63;;
22298;SDS011;11317;51.072;17.036;2023-04-15T02:50:30;16.42;;;9.02;;
22298;SDS011;11317;51.072;17.036;2023-04-15T02:52:56;17.05;;;8.90;;
22298;SDS011;11317;51.072;17.036;2023-04-15T02:55:22;14.15;;;9.00;;
22298;SDS011;11317;51.072;17.036;2023-04-15T02:57:48;17.08;;;9.77;;
22298;SDS011;11317;51.072;17.036;2023-04-15T03:00:15;14.38;;;8.93;;
22298;SDS011;11317;51.072;17.036;2023-04-15T03:02:41;17.70;;;8.98;;
22298;SDS011;11317;51.072;17.036;2023-04-15T03:05:10;15.30;;;9.43;;
22298;SDS011;11317;51.072;17.036;2023-04-15T03:07:37;18.17;;;9.75;;
22298;SDS011;11317;51.072;17.036;2023-04-15T03:10:04;16.13;;;8.52;;
22298;SDS011;11317;51.072;17.036;2023-04-15T03:12:31;20.75;;;9.20;;
22298;SDS011;11317;51.072;17.036;2023-04-15T03:14:57;19.60;;;9.90;;
22298;SDS011;11317;51.072;17.036;2023-04-15T03:17:26;15.73;;;8.63;;
22298;SDS011;11317;51.072;17.036;2023-04-15T03:19:52;18.17;;;9.18;;
22298;SDS011;11317;51.072;17.036;2023-04-15T03:22:18;17.23;;;9.82;;
22298;SDS011;11317;51.072;17.036;2023-04-15T03:24:44;18.52;;;9.52;;
22298;SDS011;11317;51.072;17.036;2023-04-15T03:27:10;16.10;;;9.88;;
22298;SDS011;11317;51.072;17.036;2023-04-15T03:29:37;18.02;;;8.25;;
22298;SDS011;11317;51.072;17.036;2023-04-15T03:32:03;17.05;;;8.63;;
22298;SDS011;11317;51.072;17.036;2023-04-15T03:34:29;18.73;;;8.95;;
22298;SDS011;11317;51.072;17.036;2023-04-15T03:36:56;18.90;;;10.15;;
22298;SDS011;11317;51.072;17.036;2023-04-15T03:39:22;15.85;;;8.55;;
22298;SDS011;11317;51.072;17.036;2023-04-15T03:41:48;16.65;;;8.25;;
22298;SDS011;11317;51.072;17.036;2023-04-15T03:44:14;13.60;;;7.78;;
22298;SDS011;11317;51.072;17.036;2023-04-15T03:46:40;13.93;;;7.45;;
22298;SDS011;11317;51.072;17.036;2023-04-15T03:49:06;14.50;;;7.60;;
22298;SDS011;11317;51.072;17.036;2023-04-15T03:51:33;16.02;;;8.32;;
22298;SDS011;11317;51.072;17.036;2023-04-15T03:53:59;12.93;;;7.40;;
22298;SDS011;11317;51.072;17.036;2023-04-15T03:56:26;9.63;;;5.35;;
22298;SDS011;11317;51.072;17.036;2023-04-15T03:58:52;6.10;;;4.18;;
22298;SDS011;11317;51.072;17.036;2023-04-15T04:01:18;9.98;;;3.92;;
22298;SDS011;11317;51.072;17.036;2023-04-15T04:03:44;5.03;;;2.97;;
22298;SDS011;11317;51.072;17.036;2023-04-15T04:06:10;4.25;;;2.50;;
22298;SDS011;11317;51.072;17.036;2023-04-15T04:08:37;4.82;;;2.17;;
22298;SDS011;11317;51.072;17.036;2023-04-15T04:11:03;4.57;;;2.17;;
22298;SDS011;11317;51.072;17.036;2023-04-15T04:13:29;2.75;;;2.33;;
22298;SDS011;11317;51.072;17.036;2023-04-15T04:15:55;3.88;;;2.42;;
22298;SDS011;11317;51.072;17.036;2023-04-15T04:18:21;3.90;;;2.30;;
22298;SDS011;11317;51.072;17.036;2023-04-15T04:20:48;4.80;;;2.80;;
22298;SDS011;11317;51.072;17.036;2023-04-15T04:23:14;6.03;;;2.63;;
22298;SDS011;11317;51.072;17.036;2023-04-15T04:25:40;7.53;;;2.78;;
22298;SDS011;11317;51.072;17.036;2023-04-15T04:28:06;3.95;;;2.47;;
22298;SDS011;11317;51.072;17.036;2023-04-15T04:30:32;3.65;;;2.00;;
22298;SDS011;11317;51.072;17.036;2023-04-15T04:33:00;2.00;;;1.65;;
22298;SDS011;11317;51.072;17.036;2023-04-15T04:35:26;2.10;;;1.77;;
22298;SDS011;11317;51.072;17.036;2023-04-15T04:37:52;3.40;;;1.77;;
22298;SDS011;11317;51.072;17.036;2023-04-15T04:40:18;4.60;;;2.38;;
22298;SDS011;11317;51.072;17.036;2023-04-15T04:42:44;3.97;;;2.50;;
22298;SDS011;11317;51.072;17.036;2023-04-15T04:45:11;3.08;;;2.17;;
22298;SDS011;11317;51.072;17.036;2023-04-15T04:47:37;3.63;;;2.53;;
22298;SDS011;11317;51.072;17.036;2023-04-15T04:50:03;5.05;;;2.22;;
22298;SDS011;11317;51.072;17.036;2023-04-15T04:52:30;4.70;;;2.60;;
22298;SDS011;11317;51.072;17.036;2023-04-15T04:54:56;2.42;;;1.85;;
22298;SDS011;11317;51.072;17.036;2023-04-15T04:57:22;2.83;;;1.95;;
22298;SDS011;11317;51.072;17.036;2023-04-15T04:59:48;2.28;;;1.83;;
22298;SDS011;11317;51.072;17.036;2023-04-15T05:02:15;2.72;;;2.10;;
22298;SDS011;11317;51.072;17.036;2023-04-15T05:04:41;2.92;;;2.22;;
22298;SDS011;11317;51.072;17.036;2023-04-15T05:07:07;2.38;;;1.90;;
22298;SDS011;11317;51.072;17.036;2023-04-15T05:09:33;3.25;;;2.20;;
22298;SDS011;11317;51.072;17.036;2023-04-15T05:12:01;2.42;;;2.15;;
22298;SDS011;11317;51.072;17.036;2023-04-15T05:14:27;3.80;;;2.70;;
22298;SDS011;11317;51.072;17.036;2023-04-15T05:16:53;3.42;;;2.40;;
22298;SDS011;11317;51.072;17.036;2023-04-15T05:19:19;2.53;;;1.85;;
22298;SDS011;11317;51.072;17.036;2023-04-15T05:21:45;3.13;;;2.25;;
22298;SDS011;11317;51.072;17.036;2023-04-15T05:24:11;3.83;;;2.20;;
22298;SDS011;11317;51.072;17.036;2023-04-15T05:26:37;4.20;;;2.10;;
22298;SDS011;11317;51.072;17.036;2023-04-15T05:29:03;2.38;;;1.63;;
22298;SDS011;11317;51.072;17.036;2023-04-15T05:31:29;2.55;;;1.88;;
22298;SDS011;11317;51.072;17.036;2023-04-15T05:33:56;2.50;;;1.90;;
22298;SDS011;11317;51.072;17.036;2023-04-15T05:36:22;1.95;;;1.50;;
22298;SDS011;11317;51.072;17.036;2023-04-15T05:38:48;2.03;;;1.58;;
22298;SDS011;11317;51.072;17.036;2023-04-15T05:41:14;2.17;;;1.33;;
22298;SDS011;11317;51.072;17.036;2023-04-15T05:43:40;1.25;;;1.08;;
22298;SDS011;11317;51.072;17.036;2023-04-15T05:46:06;2.00;;;1.30;;
22298;SDS011;11317;51.072;17.036;2023-04-15T05:48:33;1.30;;;1.00;;
22298;SDS011;11317;51.072;17.036;2023-04-15T05:50:59;1.60;;;1.30;;
22298;SDS011;11317;51.072;17.036;2023-04-15T05:53:25;2.50;;;1.00;;
22298;SDS011;11317;51.072;17.036;2023-04-15T05:55:51;1.38;;;1.23;;
22298;SDS011;11317;51.072;17.036;2023-04-15T05:58:17;1.25;;;1.02;;
22298;SDS011;11317;51.072;17.036;2023-04-15T06:00:44;4.10;;;2.15;;
22298;SDS011;11317;51.072;17.036;2023-04-15T06:03:10;1.85;;;1.30;;
22298;SDS011;11317;51.072;17.036;2023-04-15T06:05:36;1.67;;;1.33;;
22298;SDS011;11317;51.072;17.036;2023-04-15T06:08:02;2.50;;;1.45;;
22298;SDS011;11317;51.072;17.036;2023-04-15T06:10:28;4.13;;;1.92;;
22298;SDS011;11317;51.072;17.036;2023-04-15T06:12:55;1.98;;;1.50;;
22298;SDS011;11317;51.072;17.036;2023-04-15T06:15:21;1.60;;;1.50;;
22298;SDS011;11317;51.072;17.036;2023-04-15T06:17:47;2.13;;;1.30;;
22298;SDS011;11317;51.072;17.036;2023-04-15T06:20:13;1.50;;;0.80;;
22298;SDS011;11317;51.072;17.036;2023-04-15T06:22:40;2.88;;;0.95;;
22298;SDS011;11317;51.072;17.036;2023-04-15T06:25:06;1.20;;;0.90;;
22298;SDS011;11317;51.072;17.036;2023-04-15T06:27:33;0.75;;;0.75;;
22298;SDS011;11317;51.072;17.036;2023-04-15T06:29:59;0.80;;;0.80;;
22298;SDS011;11317;51.072;17.036;2023-04-15T06:32:25;0.73;;;0.73;;
22298;SDS011;11317;51.072;17.036;2023-04-15T06:34:51;0.68;;;0.68;;
22298;SDS011;11317;51.072;17.036;2023-04-15T06:37:18;1.10;;;0.90;;
22298;SDS011;11317;51.072;17.036;2023-04-15T06:39:44;1.02;;;0.93;;
22298;SDS011;11317;51.072;17.036;2023-04-15T06:42:11;1.10;;;0.98;;
22298;SDS011;11317;51.072;17.036;2023-04-15T06:44:37;1.35;;;1.00;;
22298;SDS011;11317;51.072;17.036;2023-04-15T06:47:04;1.42;;;1.00;;
22298;SDS011;11317;51.072;17.036;2023-04-15T06:49:30;1.10;;;1.00;;
22298;SDS011;11317;51.072;17.036;2023-04-15T06:51:57;0.90;;;0.70;;
22298;SDS011;11317;51.072;17.036;2023-04-15T06:54:24;0.88;;;0.73;;
22298;SDS011;11317;51.072;17.036;2023-04-15T06:56:51;1.38;;;0.90;;
22298;SDS011;11317;51.072;17.036;2023-04-15T06:59:17;1.77;;;1.30;;
22298;SDS011;11317;51.072;17.036;2023-04-15T07:01:44;1.15;;;1.00;;
22298;SDS011;11317;51.072;17.036;2023-04-15T07:04:10;1.48;;;1.00;;
22298;SDS011;11317;51.072;17.036;2023-04-15T07:06:36;1.00;;;0.82;;
22298;SDS011;11317;51.072;17.036;2023-04-15T07:09:02;1.15;;;0.98;;
22298;SDS011;11317;51.072;17.036;2023-04-15T07:11:29;1.65;;;0.98;;
22298;SDS011;11317;51.072;17.036;2023-04-15T07:13:56;0.75;;;0.60;;
22298;SDS011;11317;51.072;17.036;2023-04-15T07:16:22;0.70;;;0.70;;
22298;SDS011;11317;51.072;17.036;2023-04-15T07:18:48;1.10;;;1.00;;
22298;SDS011;11317;51.072;17.036;2023-04-15T07:21:15;0.68;;;0.68;;
22298;SDS011;11317;51.072;17.036;2023-04-15T07:23:41;1.25;;;0.57;;
22298;SDS011;11317;51.072;17.036;2023-04-15T07:26:07;3.33;;;0.75;;
22298;SDS011;11317;51.072;17.036;2023-04-15T07:28:35;1.35;;;0.70;;
22298;SDS011;11317;51.072;17.036;2023-04-15T07:31:01;1.73;;;0.80;;
22298;SDS011;11317;51.072;17.036;2023-04-15T07:33:27;1.55;;;0.80;;
22298;SDS011;11317;51.072;17.036;2023-04-15T07:35:53;0.77;;;0.70;;
22298;SDS011;11317;51.072;17.036;2023-04-15T07:38:19;0.38;;;0.38;;
22298;SDS011;11317;51.072;17.036;2023-04-15T07:40:45;0.88;;;0.50;;
22298;SDS011;11317;51.072;17.036;2023-04-15T07:43:12;1.35;;;0.70;;
22298;SDS011;11317;51.072;17.036;2023-04-15T07:45:38;7.53;;;0.50;;
22298;SDS011;11317;51.072;17.036;2023-04-15T07:48:04;0.88;;;0.60;;
22298;SDS011;11317;51.072;17.036;2023-04-15T07:50:30;0.45;;;0.40;;
22298;SDS011;11317;51.072;17.036;2023-04-15T07:52:57;0.70;;;0.45;;
22298;SDS011;11317;51.072;17.036;2023-04-15T07:55:23;0.63;;;0.47;;
22298;SDS011;11317;51.072;17.036;2023-04-15T07:57:50;0.65;;;0.50;;
22298;SDS011;11317;51.072;17.036;2023-04-15T08:00:16;2.60;;;0.50;;
22298;SDS011;11317;51.072;17.036;2023-04-15T08:02:42;0.75;;;0.52;;
22298;SDS011;11317;51.072;17.036;2023-04-15T08:05:09;0.38;;;0.30;;
22298;SDS011;11317;51.072;17.036;2023-04-15T08:07:36;2.92;;;0.50;;
22298;SDS011;11317;51.072;17.036;2023-04-15T08:10:02;0.60;;;0.60;;
22298;SDS011;11317;51.072;17.036;2023-04-15T08:12:28;0.40;;;0.40;;
22298;SDS011;11317;51.072;17.036;2023-04-15T08:14:55;1.17;;;0.70;;
22298;SDS011;11317;51.072;17.036;2023-04-15T08:17:22;0.68;;;0.50;;
22298;SDS011;11317;51.072;17.036;2023-04-15T08:19:48;0.73;;;0.50;;
22298;SDS011;11317;51.072;17.036;2023-04-15T08:22:14;0.82;;;0.73;;
22298;SDS011;11317;51.072;17.036;2023-04-15T08:24:40;0.50;;;0.40;;
22298;SDS011;11317;51.072;17.036;2023-04-15T08:27:07;0.30;;;0.30;;
22298;SDS011;11317;51.072;17.036;2023-04-15T08:29:34;0.52;;;0.50;;
22298;SDS011;11317;51.072;17.036;2023-04-15T08:32:00;1.95;;;0.43;;
22298;SDS011;11317;51.072;17.036;2023-04-15T08:34:26;0.60;;;0.50;;
22298;SDS011;11317;51.072;17.036;2023-04-15T08:36:53;0.47;;;0.32;;
22298;SDS011;11317;51.072;17.036;2023-04-15T08:39:19;0.47;;;0.43;;
22298;SDS011;11317;51.072;17.036;2023-04-15T08:41:46;0.60;;;0.40;;
22298;SDS011;11317;51.072;17.036;2023-04-15T08:44:15;0.55;;;0.50;;
22298;SDS011;11317;51.072;17.036;2023-04-15T08:46:42;0.57;;;0.35;;
22298;SDS011;11317;51.072;17.036;2023-04-15T08:49:09;0.50;;;0.50;;
22298;SDS011;11317;51.072;17.036;2023-04-15T08:51:39;0.60;;;0.30;;
22298;SDS011;11317;51.072;17.036;2023-04-15T08:54:06;0.20;;;0.20;;
22298;SDS011;11317;51.072;17.036;2023-04-15T08:56:33;0.30;;;0.20;;
22298;SDS011;11317;51.072;17.036;2023-04-15T08:59:02;0.30;;;0.30;;
22298;SDS011;11317;51.072;17.036;2023-04-15T09:01:30;0.20;;;0.20;;
22298;SDS011;11317;51.072;17.036;2023-04-15T09:03:56;0.45;;;0.40;;
22298;SDS011;11317;51.072;17.036;2023-04-15T09:06:24;0.63;;;0.40;;
22298;SDS011;11317;51.072;17.036;2023-04-15T09:08:50;0.20;;;0.20;;
22298;SDS011;11317;51.072;17.036;2023-04-15T09:11:17;0.30;;;0.30;;
22298;SDS011;11317;51.072;17.036;2023-04-15T09:13:43;0.35;;;0.30;;
22298;SDS011;11317;51.072;17.036;2023-04-15T09:16:10;0.43;;;0.20;;
22298;SDS011;11317;51.072;17.036;2023-04-15T09:18:37;0.88;;;0.20;;
22298;SDS011;11317;51.072;17.036;2023-04-15T09:21:07;0.40;;;0.40;;
22298;SDS011;11317;51.072;17.036;2023-04-15T09:23:35;6.22;;;0.50;;
22298;SDS011;11317;51.072;17.036;2023-04-15T09:26:03;1.13;;;0.43;;
22298;SDS011;11317;51.072;17.036;2023-04-15T09:28:30;0.60;;;0.40;;
22298;SDS011;11317;51.072;17.036;2023-04-15T09:30:56;1.40;;;0.50;;
22298;SDS011;11317;51.072;17.036;2023-04-15T09:33:23;0.28;;;0.20;;
22298;SDS011;11317;51.072;17.036;2023-04-15T09:35:57;0.63;;;0.50;;
22298;SDS011;11317;51.072;17.036;2023-04-15T09:38:29;0.40;;;0.40;;
22298;SDS011;11317;51.072;17.036;2023-04-15T09:40:56;0.77;;;0.50;;
22298;SDS011;11317;51.072;17.036;2023-04-15T09:43:26;0.63;;;0.50;;
22298;SDS011;11317;51.072;17.036;2023-04-15T09:46:05;0.20;;;0.20;;
22298;SDS011;11317;51.072;17.036;2023-04-15T09:48:32;1.90;;;0.40;;
22298;SDS011;11317;51.072;17.036;2023-04-15T09:50:58;0.70;;;0.38;;
22298;SDS011;11317;51.072;17.036;2023-04-15T09:53:25;3.30;;;0.20;;
22298;SDS011;11317;51.072;17.036;2023-04-15T09:55:53;0.55;;;0.20;;
22298;SDS011;11317;51.072;17.036;2023-04-15T09:58:21;0.30;;;0.20;;
22298;SDS011;11317;51.072;17.036;2023-04-15T10:00:49;0.10;;;0.10;;
22298;SDS011;11317;51.072;17.036;2023-04-15T10:03:20;0.55;;;0.20;;
22298;SDS011;11317;51.072;17.036;2023-04-15T10:05:48;0.30;;;0.20;;
22298;SDS011;11317;51.072;17.036;2023-04-15T10:08:19;3.92;;;0.30;;
22298;SDS011;11317;51.072;17.036;2023-04-15T10:10:48;0.60;;;0.20;;
22298;SDS011;11317;51.072;17.036;2023-04-15T10:13:16;1.00;;;0.40;;
22298;SDS011;11317;51.072;17.036;2023-04-15T10:15:51;0.25;;;0.25;;
22298;SDS011;11317;51.072;17.036;2023-04-15T10:18:23;0.20;;;0.20;;
22298;SDS011;11317;51.072;17.036;2023-04-15T10:20:51;0.20;;;0.20;;
22298;SDS011;11317;51.072;17.036;2023-04-15T10:23:18;0.17;;;0.17;;
22298;SDS011;11317;51.072;17.036;2023-04-15T10:25:45;2.13;;;0.28;;
22298;SDS011;11317;51.072;17.036;2023-04-15T10:28:14;0.20;;;0.20;;
22298;SDS011;11317;51.072;17.036;2023-04-15T10:30:41;0.55;;;0.43;;
22298;SDS011;11317;51.072;17.036;2023-04-15T10:33:08;0.32;;;0.32;;
22298;SDS011;11317;51.072;17.036;2023-04-15T10:35:35;0.43;;;0.35;;
22298;SDS011;11317;51.072;17.036;2023-04-15T10:38:01;0.20;;;0.20;;
22298;SDS011;11317;51.072;17.036;2023-04-15T10:40:28;0.60;;;0.40;;
22298;SDS011;11317;51.072;17.036;2023-04-15T10:42:59;0.40;;;0.40;;
22298;SDS011;11317;51.072;17.036;2023-04-15T10:45:27;0.20;;;0.20;;
22298;SDS011;11317;51.072;17.036;2023-04-15T10:48:02;0.20;;;0.20;;
22298;SDS011;11317;51.072;17.036;2023-04-15T10:50:31;0.30;;;0.30;;
22298;SDS011;11317;51.072;17.036;2023-04-15T10:52:57;0.43;;;0.43;;
22298;SDS011;11317;51.072;17.036;2023-04-15T10:55:29;0.63;;;0.32;;
22298;SDS011;11317;51.072;17.036;2023-04-15T10:57:57;0.28;;;0.28;;
22298;SDS011;11317;51.072;17.036;2023-04-15T11:00:28;0.40;;;0.30;;
22298;SDS011;11317;51.072;17.036;2023-04-15T11:02:56;1.60;;;1.27;;
22298;SDS011;11317;51.072;17.036;2023-04-15T11:08:15;0.88;;;0.50;;
22298;SDS011;11317;51.072;17.036;2023-04-15T11:20:49;0.80;;;0.43;;
22298;SDS011;11317;51.072;17.036;2023-04-15T11:23:26;0.77;;;0.77;;
22298;SDS011;11317;51.072;17.036;2023-04-15T11:25:54;0.63;;;0.57;;
22298;SDS011;11317;51.072;17.036;2023-04-15T11:28:24;0.60;;;0.52;;
22298;SDS011;11317;51.072;17.036;2023-04-15T11:30:51;1.98;;;0.60;;
22298;SDS011;11317;51.072;17.036;2023-04-15T11:33:18;0.95;;;0.55;;
22298;SDS011;11317;51.072;17.036;2023-04-15T11:35:44;0.30;;;0.30;;
22298;SDS011;11317;51.072;17.036;2023-04-15T11:38:11;0.57;;;0.50;;
22298;SDS011;11317;51.072;17.036;2023-04-15T11:40:38;0.63;;;0.40;;
22298;SDS011;11317;51.072;17.036;2023-04-15T11:43:08;0.50;;;0.50;;
22298;SDS011;11317;51.072;17.036;2023-04-15T11:45:37;1.50;;;0.77;;
22298;SDS011;11317;51.072;17.036;2023-04-15T11:48:19;0.75;;;0.70;;
22298;SDS011;11317;51.072;17.036;2023-04-15T11:50:51;0.60;;;0.60;;
22298;SDS011;11317;51.072;17.036;2023-04-15T11:53:19;0.50;;;0.50;;
22298;SDS011;11317;51.072;17.036;2023-04-15T11:55:49;0.50;;;0.50;;
22298;SDS011;11317;51.072;17.036;2023-04-15T11:58:23;1.52;;;0.47;;
22298;SDS011;11317;51.072;17.036;2023-04-15T12:00:56;0.30;;;0.30;;
22298;SDS011;11317;51.072;17.036;2023-04-15T12:03:23;0.30;;;0.30;;
22298;SDS011;11317;51.072;17.036;2023-04-15T12:06:07;0.40;;;0.40;;
22298;SDS011;11317;51.072;17.036;2023-04-15T12:11:37;0.52;;;0.50;;
22298;SDS011;11317;51.072;17.036;2023-04-15T12:16:30;0.40;;;0.40;;
22298;SDS011;11317;51.072;17.036;2023-04-15T12:19:06;0.35;;;0.35;;
22298;SDS011;11317;51.072;17.036;2023-04-15T12:21:38;0.55;;;0.50;;
22298;SDS011;11317;51.072;17.036;2023-04-15T12:24:08;1.42;;;0.60;;
22298;SDS011;11317;51.072;17.036;2023-04-15T12:26:45;0.47;;;0.47;;
22298;SDS011;11317;51.072;17.036;2023-04-15T12:29:19;2.05;;;1.20;;
22298;SDS011;11317;51.072;17.036;2023-04-15T12:31:50;2.50;;;0.98;;
22298;SDS011;11317;51.072;17.036;2023-04-15T12:34:16;1.55;;;0.50;;
22298;SDS011;11317;51.072;17.036;2023-04-15T12:36:44;0.40;;;0.40;;
22298;SDS011;11317;51.072;17.036;2023-04-15T12:39:09;0.40;;;0.40;;
22298;SDS011;11317;51.072;17.036;2023-04-15T12:41:36;0.80;;;0.50;;
22298;SDS011;11317;51.072;17.036;2023-04-15T12:44:02;0.40;;;0.40;;
22298;SDS011;11317;51.072;17.036;2023-04-15T12:46:28;0.50;;;0.50;;
22298;SDS011;11317;51.072;17.036;2023-04-15T12:48:54;0.47;;;0.47;;
22298;SDS011;11317;51.072;17.036;2023-04-15T12:51:20;1.02;;;0.40;;
22298;SDS011;11317;51.072;17.036;2023-04-15T12:53:46;0.50;;;0.50;;
22298;SDS011;11317;51.072;17.036;2023-04-15T12:56:13;0.50;;;0.43;;
22298;SDS011;11317;51.072;17.036;2023-04-15T12:58:41;0.40;;;0.40;;
22298;SDS011;11317;51.072;17.036;2023-04-15T13:01:07;0.43;;;0.40;;
22298;SDS011;11317;51.072;17.036;2023-04-15T13:03:36;0.60;;;0.60;;
22298;SDS011;11317;51.072;17.036;2023-04-15T13:06:01;1.42;;;0.45;;
22298;SDS011;11317;51.072;17.036;2023-04-15T13:08:29;0.55;;;0.40;;
22298;SDS011;11317;51.072;17.036;2023-04-15T13:10:55;0.52;;;0.40;;
22298;SDS011;11317;51.072;17.036;2023-04-15T13:13:21;0.40;;;0.38;;
22298;SDS011;11317;51.072;17.036;2023-04-15T13:15:47;0.50;;;0.50;;
22298;SDS011;11317;51.072;17.036;2023-04-15T13:18:13;0.40;;;0.40;;
22298;SDS011;11317;51.072;17.036;2023-04-15T13:20:39;1.00;;;0.40;;
22298;SDS011;11317;51.072;17.036;2023-04-15T13:23:05;0.40;;;0.40;;
22298;SDS011;11317;51.072;17.036;2023-04-15T13:25:31;0.90;;;0.50;;
22298;SDS011;11317;51.072;17.036;2023-04-15T13:27:57;0.47;;;0.30;;
22298;SDS011;11317;51.072;17.036;2023-04-15T13:30:25;0.73;;;0.60;;
22298;SDS011;11317;51.072;17.036;2023-04-15T13:32:51;1.73;;;0.75;;
22298;SDS011;11317;51.072;17.036;2023-04-15T13:35:18;0.60;;;0.60;;
22298;SDS011;11317;51.072;17.036;2023-04-15T13:37:45;0.50;;;0.50;;
22298;SDS011;11317;51.072;17.036;2023-04-15T13:40:11;0.40;;;0.40;;
22298;SDS011;11317;51.072;17.036;2023-04-15T13:42:37;0.43;;;0.43;;
22298;SDS011;11317;51.072;17.036;2023-04-15T13:45:03;0.60;;;0.47;;
22298;SDS011;11317;51.072;17.036;2023-04-15T13:47:30;0.52;;;0.40;;
22298;SDS011;11317;51.072;17.036;2023-04-15T13:49:56;0.77;;;0.68;;
22298;SDS011;11317;51.072;17.036;2023-04-15T13:52:22;0.50;;;0.50;;
22298;SDS011;11317;51.072;17.036;2023-04-15T13:54:48;0.73;;;0.60;;
22298;SDS011;11317;51.072;17.036;2023-04-15T13:57:16;0.50;;;0.50;;
22298;SDS011;11317;51.072;17.036;2023-04-15T13:59:42;0.40;;;0.40;;
22298;SDS011;11317;51.072;17.036;2023-04-15T14:02:08;0.90;;;0.68;;
22298;SDS011;11317;51.072;17.036;2023-04-15T14:04:34;0.90;;;0.50;;
22298;SDS011;11317;51.072;17.036;2023-04-15T14:07:00;0.70;;;0.60;;
22298;SDS011;11317;51.072;17.036;2023-04-15T14:09:26;0.50;;;0.50;;
22298;SDS011;11317;51.072;17.036;2023-04-15T14:11:53;1.05;;;0.95;;
22298;SDS011;11317;51.072;17.036;2023-04-15T14:14:18;0.60;;;0.40;;
22298;SDS011;11317;51.072;17.036;2023-04-15T14:16:45;0.80;;;0.70;;
22298;SDS011;11317;51.072;17.036;2023-04-15T14:19:12;2.05;;;0.90;;
22298;SDS011;11317;51.072;17.036;2023-04-15T14:21:38;0.55;;;0.55;;
22298;SDS011;11317;51.072;17.036;2023-04-15T14:24:04;0.80;;;0.52;;
22298;SDS011;11317;51.072;17.036;2023-04-15T14:26:30;0.52;;;0.52;;
22298;SDS011;11317;51.072;17.036;2023-04-15T14:28:56;0.57;;;0.57;;
22298;SDS011;11317;51.072;17.036;2023-04-15T14:31:22;0.50;;;0.50;;
22298;SDS011;11317;51.072;17.036;2023-04-15T14:33:48;0.85;;;0.60;;
22298;SDS011;11317;51.072;17.036;2023-04-15T14:36:14;0.68;;;0.60;;
22298;SDS011;11317;51.072;17.036;2023-04-15T14:38:40;0.50;;;0.50;;
22298;SDS011;11317;51.072;17.036;2023-04-15T14:41:06;0.38;;;0.38;;
22298;SDS011;11317;51.072;17.036;2023-04-15T14:43:35;0.43;;;0.43;;
22298;SDS011;11317;51.072;17.036;2023-04-15T14:46:01;0.60;;;0.60;;
22298;SDS011;11317;51.072;17.036;2023-04-15T14:48:27;0.60;;;0.52;;